Pagina principale
METAR-TAF:

METAR-TAF

Aeroporti :

Aeroporto di Windhoek-Eros

Windhoek, Namibia

latitudine: 22-36-44S, longitudine: 017-04-50E, altezza: 1699 m

Osservazione

Il bollettino è stato emesso 5 ore e 34 minuti fa, alle 18:00 UTC
Vento 9 kt da ovest/sud-ovest
Temperature 22°C
Umidità 43%
Pressione 1017 hPa
Visibilità 10 km o più
Poco nuvoloso ad un'altezza di 5000 ft

METAR: FYWE 081800Z 25009KT 9999 FEW050 22/09 Q1017

Ora: 01:34 (23:34 UTC)

Previsione

Il bollettino è stato emesso 3 ore e 34 minuti fa, alle 20:00 UTC
Previsione valida dal 08 alle 21 UTC al 09 alle 06 UTC
Vento 6 kt da sud-ovest
Visibilità 10 km o più
Poco nuvoloso ad un'altezza di 4500 ft

TAF: FYWE 082000Z 0821/0906 23006KT 9999 FEW045

Osservazioni e previsioni meteorologiche di più di 4000 aeroporti (messaggi METAR e TAF).

Le stazioni disponibili sono rappresentate dai dischi gialli e rossi sulla carta.

Puntare il mouse per vedere il nome della stazione.

Clicca sopra per visualizzare le osservazioni e previsioni meteorologiche.

Per cambiare la mappa : fare clic sui pulsanti verdi con una croce nera per ingrandire, il pulsante verde con un trattino per diminuire, o sulla freccia verde per le mappe adiacenti.


METAR-TAF: